KCRX

Roscoe Turner Airport

Corinth, Mississippi, USA
METAR KCRX 231055Z AUTO 23005KT 10SM CLR 05/M02 A2994 RMK AO2
Observed Flight Rules
Jan-23 @ 10:55 UTC (60 minutes ago) Visual Flight Rules
Wind Visibility Clouds
230° at 5 knots 10 miles
  • Clear skies
Temperatures Readings
Current 5°C / 41°F
Dewpoint -2°C / 28°F
Humidity 61%
Altimeter 29.94" Hg
Pressure 1014 hPa
Elevation 130
METAR KCRX 231055Z AUTO 23005KT 10SM CLR 05/M02 A2994 RMK AO2
Observed Flight Rules
Jan-23 @ 10:55 UTC
(60 minutes ago)
VFR
Wind Visibility
230° at 5 knots 10 miles
Clouds
  • Clear skies
Temperature Dewpoint
5°C / 41°F -2°C / 28°F
Humidity Altimeter Pressure
61% 29.94" Hg 1014 hPa